Observations for BIRMINGHAM AIRPORT, United Kingdom (EGBB)

EGBB 140820Z 25005KT 200V280 9999 BKN034 18/13 Q1015
EGBB 140750Z 25005KT 220V280 9999 SCT041 18/13 Q1015
EGBB 140720Z 25005KT 210V290 CAVOK 17/14 Q1015  
EGBB 140650Z 25004KT CAVOK 16/13 Q1015  
EGBB 140620Z 26005KT 230V290 9999 FEW035 16/13 Q1015
EGBB 140550Z 27004KT 9999 BKN034 16/13 Q1015
EGBB 140520Z 26004KT 220V280 9999 OVC034 16/13 Q1014
EGBB 140450Z 26004KT 9999 BKN035 15/13 Q1014
EGBB 140420Z 26005KT 9999 BKN036 15/13 Q1014
EGBB 140350Z 26005KT 9999 BKN036 15/13 Q1014
EGBB 140320Z 27004KT 9999 OVC039 15/12 Q1014
EGBB 140250Z 27005KT 9999 OVC040 15/12 Q1014
EGBB 140220Z 26006KT 9999 BKN045 14/12 Q1013
EGBB 140150Z 26005KT CAVOK 14/12 Q1013  
EGBB 140120Z 29004KT CAVOK 15/12 Q1013  
EGBB 132350Z 30007KT CAVOK 16/11 Q1013  
EGBB 132320Z 30006KT CAVOK 16/11 Q1013  
EGBB 132250Z 31006KT CAVOK 16/12 Q1012  
EGBB 132220Z 31007KT CAVOK 16/12 Q1012  
EGBB 132150Z 31008KT CAVOK 17/12 Q1012  
EGBB 132120Z 32010KT CAVOK 17/12 Q1012  
EGBB 132050Z 32009KT CAVOK 17/12 Q1011  
EGBB 132020Z 32009KT 9999 FEW033 18/12 Q1011
EGBB 131950Z 32010KT 9999 FEW028CB 19/12 Q1011  
EGBB 131920Z 33008KT 9999 FEW032CB 19/12 Q1010  
EGBB 131850Z 32010KT 9999 FEW032CB 20/12 Q1010  
EGBB 131820Z 32014KT 9999 FEW027CB 20/12 Q1010  
EGBB 131750Z 32014KT 9999 FEW024TCU SCT029 20/13 Q1009  
EGBB 131720Z 31014KT 9999 SCT024 20/14 Q1009
EGBB 131650Z 32013KT 9999 SCT021 20/14 Q1009
EGBB 131620Z 33016KT 9999 SCT021 20/15 Q1009
EGBB 131550Z 33017KT 9999 SCT024TCU 21/15 Q1009 
EGBB 131520Z 32015KT 9999 BKN039TCU 22/15 Q1008 
EGBB 131450Z 30012KT 9999 BKN030TCU 22/14 Q1008 
EGBB 131420Z 32010KT 280V340 9999 FEW029 SCT040TCU 22/14 Q1008  
EGBB 131350Z 31009KT 270V340 9999 FEW032TCU BKN034 22/14 Q1008  
EGBB 131320Z 32008KT 9999 FEW031 SCT036 21/14 Q1008 
EGBB 131250Z 31009KT 9999 FEW034 SCT039 21/13 Q1007 
EGBB 131220Z 31009KT 280V350 9999 FEW031 SCT036 21/13 Q1007 
EGBB 131150Z 31010KT 9999 FEW029 SCT034 21/13 Q1007 
EGBB 131120Z 29009KT 9999 FEW025 SCT031 20/13 Q1007 
EGBB 131050Z 30009KT 9999 FEW024 SCT029 20/14 Q1007 
EGBB 131020Z 31008KT 9999 FEW019 SCT023 20/14 Q1007 
EGBB 130950Z 32009KT 9999 FEW017 SCT023 19/14 Q1007 
EGBB 130920Z 31006KT 9999 SCT016 BKN047 18/14 Q1007 
EGBB 130850Z 33008KT 9999 FEW017 BKN048 18/14 Q1006 
EGBB 130820Z 32008KT 9999 FEW016 BKN040 18/14 Q1006 
EGBB 130750Z 32007KT 9999 FEW015 BKN040 17/14 Q1006